Latest Coastal Weather Observations for Neptune Island

IDS60701

Issued at 4:51 pm CDT Monday 8 February 2016 (issued every 10 minutes, with the page automatically refreshed every 10 minutes)

About coastal observations | Map of coastal stations | Coastal observations for SA | Marine services | Other Formats
Station Details ID: 018115 Name: NEPTUNE ISLAND Lat: -35.34 Lon: 136.12 Height: 32.0 m
Data from the previous 72 hours. | See also: Recent months at Neptune Island
Date/Time
CDT
Temp

°C
Wind Pressure Rain
since 9am
mm
Weather Cloud Vis
km
Sea
Height
m
Swell
Dir
 
Speed
knots
Gust
knots
hPa Trend Height
m
Period
s
Dir
08/04:30pm 20.2 S 21 25 1021.6 - 0.0 - - - - - - -
08/04:00pm 20.4 S 21 27 1021.9 - 0.0 - - - - - - -
08/03:30pm 20.5 S 19 24 1022.3 - 0.0 - - - - - - -
08/03:00pm 20.9 SSE 18 22 1022.6 - 0.0 - - - - - - -
08/02:30pm 21.2 SSE 16 20 1022.9 - 0.0 - - - - - - -
08/02:00pm 21.3 SSE 11 14 1023.3 - 0.0 - - - - - - -
08/01:30pm 21.3 SE 13 16 1023.4 - 0.0 - - - - - - -
08/01:00pm 20.7 SE 14 17 1023.7 - 0.0 - - - - - - -
08/12:30pm 20.0 SE 16 19 1023.9 - 0.0 - - - - - - -
08/12:00pm 19.5 SE 15 19 1024.0 - 0.0 - - - - - - -
08/11:30am 19.3 SE 15 18 1024.1 - 0.0 - - - - - - -
08/11:00am 18.8 SE 17 21 1024.0 - 0.0 - - - - - - -
08/10:30am 18.6 SE 18 21 1023.9 - 0.0 - - - - - - -
08/10:00am 18.4 SSE 17 22 1023.9 - 0.0 - - - - - - -
08/09:30am 18.1 SE 19 23 1023.9 - 0.0 - - - - - - -
08/09:00am 17.9 SE 16 20 1023.9 - 0.0 - - - - - - -
08/08:30am 17.7 SE 17 21 1023.5 - 0.0 - - - - - - -
08/08:00am 17.4 SE 17 21 1023.1 - 0.0 - - - - - - -
08/07:30am 17.3 SE 16 21 1023.0 - 0.0 - - - - - - -
08/07:00am 17.1 SSE 17 22 1022.7 - 0.0 - - - - - - -
08/06:30am 17.0 SSE 16 20 1022.6 - 0.0 - - - - - - -
08/06:00am 16.8 SE 17 22 1022.0 - 0.0 - - - - - - -
08/05:30am 16.8 SSE 18 22 1021.9 - 0.0 - - - - - - -
08/05:00am 16.7 SE 15 19 1021.7 - 0.0 - - - - - - -
08/04:30am 16.7 SSE 17 21 1021.5 - 0.0 - - - - - - -
08/04:00am 17.0 SE 16 21 1021.4 - 0.0 - - - - - - -
08/03:30am 16.9 SE 16 20 1021.5 - 0.0 - - - - - - -
08/03:00am 17.1 SE 17 22 1021.6 - 0.0 - - - - - - -
08/02:30am 17.4 SSE 17 22 1021.7 - 0.0 - - - - - - -
08/02:00am 17.3 SSE 18 22 1021.9 - 0.0 - - - - - - -
08/01:30am 17.3 SE 19 25 1022.1 - 0.0 - - - - - - -
08/01:00am 17.2 SSE 20 25 1022.2 - 0.0 - - - - - - -
08/12:30am 17.5 SSE 19 23 1022.1 - 0.0 - - - - - - -
08/12:00am 17.5 SSE 19 23 1022.1 - 0.0 - - - - - - -
 
Date/Time
CDT
Temp

°C
Wind Pressure Rain
since 9am
mm
Weather Cloud Vis
km
Sea
Height
m
Swell
Dir
 
Speed
knots
Gust
knots
hPa Trend Height
m
Period
s
Dir
07/11:30pm 17.5 SSE 19 23 1022.1 - 0.0 - - - - - - -
07/11:00pm 17.5 SSE 20 24 1022.0 - 0.0 - - - - - - -
07/10:30pm 17.7 SSE 21 25 1021.9 - 0.0 - - - - - - -
07/10:00pm 17.8 SSE 22 26 1021.5 - 0.0 - - - - - - -
07/09:30pm 17.9 SSE 21 26 1021.1 - 0.0 - - - - - - -
07/09:00pm 18.0 SSE 22 27 1020.7 - 0.0 - - - - - - -
07/08:30pm 17.9 S 24 28 1020.2 - 0.0 - - - - - - -
07/08:00pm 18.1 S 25 30 1019.9 - 0.0 - - - - - - -
07/07:30pm 18.5 S 24 29 1019.6 - 0.0 - - - - - - -
07/07:00pm 18.8 S 24 28 1019.2 - 0.0 - - - - - - -
07/06:30pm 19.1 S 23 28 1019.0 - 0.0 - - - - - - -
07/06:00pm 19.4 S 24 27 1019.0 - 0.0 - - - - - - -
07/05:30pm 19.4 S 23 27 1018.9 - 0.0 - - - - - - -
07/05:00pm 20.2 S 23 26 1018.9 - 0.0 - - - - - - -
07/04:30pm 20.2 S 22 25 1018.8 - 0.0 - - - - - - -
07/04:00pm 20.5 S 22 25 1018.8 - 0.0 - - - - - - -
07/03:30pm 20.5 S 20 23 1018.9 - 0.0 - - - - - - -
07/03:00pm 20.8 S 17 20 1019.1 - 0.0 - - - - - - -
07/02:30pm 20.7 S 17 19 1019.1 - 0.0 - - - - - - -
07/02:00pm 20.7 S 18 20 1019.3 - 0.0 - - - - - - -
07/01:30pm 20.7 S 17 20 1019.4 - 0.0 - - - - - - -
07/01:00pm 20.1 S 18 21 1019.5 - 0.0 - - - - - - -
07/12:30pm 19.9 S 18 20 1019.6 - 0.0 - - - - - - -
07/12:00pm 20.0 S 17 19 1019.6 - 0.0 - - - - - - -
07/11:30am 20.1 S 15 17 1019.7 - 0.0 - - - - - - -
07/11:00am 19.8 S 15 18 1019.6 - 0.0 - - - - - - -
07/10:30am 19.5 S 16 18 1019.6 - 0.0 - - - - - - -
07/10:00am 19.3 S 14 17 1019.5 - 0.0 - - - - - - -
07/09:30am 18.9 SSE 12 16 1019.2 - 0.0 - - - - - - -
07/09:00am 18.7 SSE 13 16 1019.0 - 0.0 - - - - - - -
07/08:30am 18.1 SSE 15 17 1018.7 - 0.0 - - - - - - -
07/08:00am 17.8 S 14 17 1018.6 - 0.0 - - - - - - -
07/07:30am 17.5 SSE 14 18 1018.2 - 0.0 - - - - - - -
07/07:00am 17.4 SSE 15 19 1018.0 - 0.0 - - - - - - -
07/06:30am 17.2 SSE 14 17 1017.5 - 0.0 - - - - - - -
07/06:00am 17.3 SSE 13 16 1017.2 - 0.0 - - - - - - -
07/05:30am 17.2 SSE 15 19 1017.0 - 0.0 - - - - - - -
07/05:00am 17.1 SSE 17 20 1016.7 - 0.0 - - - - - - -
07/04:30am 17.2 SSE 17 22 1016.8 - 0.0 - - - - - - -
07/04:00am 17.2 S 18 22 1016.7 - 0.0 - - - - - - -
07/03:30am 17.3 S 20 23 1016.6 - 0.0 - - - - - - -
07/03:00am 17.3 S 17 21 1016.6 - 0.0 - - - - - - -
07/02:30am 17.3 S 17 19 1016.4 - 0.0 - - - - - - -
07/02:00am 17.3 SSE 15 18 1016.2 - 0.0 - - - - - - -
07/01:30am 17.3 S 18 21 1016.5 - 0.0 - - - - - - -
07/01:00am 17.3 SSE 15 18 1016.4 - 0.0 - - - - - - -
07/12:30am 17.3 SSE 16 21 1016.5 - 0.0 - - - - - - -
07/12:00am 17.5 SSE 16 20 1016.9 - 0.0 - - - - - - -
 
Date/Time
CDT
Temp

°C
Wind Pressure Rain
since 9am
mm
Weather Cloud Vis
km
Sea
Height
m
Swell
Dir
 
Speed
knots
Gust
knots
hPa Trend Height
m
Period
s
Dir
06/11:30pm 17.5 S 20 23 1017.2 - 0.0 - - - - - - -
06/11:00pm 17.6 S 20 25 1017.1 - 0.0 - - - - - - -
06/10:30pm 17.6 S 18 22 1016.8 - 0.0 - - - - - - -
06/10:00pm 17.6 SSE 18 22 1016.6 - 0.0 - - - - - - -
06/09:30pm 17.6 S 20 24 1016.5 - 0.0 - - - - - - -
06/09:00pm 17.9 SSE 18 24 1016.2 - 0.0 - - - - - - -
06/08:30pm 17.8 S 21 25 1016.0 - 0.0 - - - - - - -
06/08:00pm 17.9 S 22 26 1015.9 - 0.0 - - - - - - -
06/07:30pm 18.4 S 21 26 1015.5 - 0.0 - - - - - - -
06/07:00pm 18.8 S 20 24 1015.2 - 0.0 - - - - - - -
06/06:30pm 18.9 S 19 24 1015.1 - 0.0 - - - - - - -
06/06:00pm 19.4 S 19 22 1015.0 - 0.0 - - - - - - -
06/05:30pm 19.8 S 19 23 1014.8 - 0.0 - - - - - - -
06/05:00pm 19.7 S 22 25 1014.9 - 0.0 - - - - - - -
06/04:30pm 20.2 S 21 24 1015.0 - 0.0 - - - - - - -
06/04:00pm 20.2 S 20 24 1015.0 - 0.0 - - - - - - -
06/03:30pm 20.0 S 20 24 1015.2 - 0.0 - - - - - - -
06/03:00pm 20.3 S 20 23 1015.5 - 0.0 - - - - - - -
06/02:30pm 20.6 S 21 23 1015.6 - 0.0 - - - - - - -
06/02:00pm 20.4 S 19 21 1015.8 - 0.0 - - - - - - -
06/01:30pm 20.2 S 20 23 1015.8 - 0.0 - - - - - - -
06/01:00pm 20.1 S 21 25 1015.9 - 0.0 - - - - - - -
06/12:30pm 19.8 S 19 22 1016.2 - 0.0 - - - - - - -
06/12:00pm 19.8 S 19 22 1016.3 - 0.0 - - - - - - -
06/11:30am 19.7 S 17 20 1016.4 - 0.0 - - - - - - -
06/11:00am 19.3 S 17 20 1016.4 - 0.0 - - - - - - -
06/10:30am 19.1 S 17 19 1016.4 - 0.0 - - - - - - -
06/10:00am 18.7 S 16 18 1016.4 - 0.0 - - - - - - -
06/09:30am 18.4 S 14 15 1016.4 - 0.0 - - - - - - -
06/09:00am 18.3 S 11 13 1016.3 - 0.0 - - - - - - -
06/08:30am 17.9 S 9 10 1016.1 - 0.0 - - - - - - -
06/08:00am 17.4 S 9 10 1015.8 - 0.0 - - - - - - -
06/07:30am 16.8 SSE 8 10 1015.5 - 0.0 - - - - - - -
06/07:00am 16.6 SSE 8 9 1015.4 - 0.0 - - - - - - -
06/06:30am 16.3 SSE 8 9 1015.3 - 0.0 - - - - - - -
06/06:00am 16.2 SE 9 11 1015.1 - 0.0 - - - - - - -
06/05:30am 16.2 SSE 11 13 1014.9 - 0.0 - - - - - - -
06/05:00am 16.3 SSE 11 14 1014.8 - 0.0 - - - - - - -
06/04:30am 16.2 SSE 11 13 1015.1 - 0.0 - - - - - - -
06/04:00am 16.3 SE 12 14 1015.1 - 0.0 - - - - - - -
06/03:30am 16.4 SE 13 15 1015.2 - 0.0 - - - - - - -
06/03:00am 16.4 SSE 14 16 1015.4 - 0.0 - - - - - - -
06/02:30am 16.6 SSE 15 18 1015.7 - 0.0 - - - - - - -
06/02:00am 16.6 SE 15 17 1016.0 - 0.0 - - - - - - -
06/01:30am 16.6 SE 17 20 1016.2 - 0.0 - - - - - - -
06/01:00am 16.7 SE 18 22 1016.5 - 0.0 - - - - - - -
06/12:30am 16.9 SSE 19 23 1016.8 - 0.0 - - - - - - -
06/12:00am 16.9 SSE 18 23 1016.9 - 0.0 - - - - - - -
 
Date/Time
CDT
Temp

°C
Wind Pressure Rain
since 9am
mm
Weather Cloud Vis
km
Sea
Height
m
Swell
Dir
 
Speed
knots
Gust
knots
hPa Trend Height
m
Period
s
Dir
05/11:30pm 16.8 SSE 20 24 1017.3 - 0.0 - - - - - - -
05/11:00pm 16.8 SSE 21 27 1017.5 - 0.0 - - - - - - -
05/10:30pm 16.9 SSE 20 24 1017.5 - 0.0 - - - - - - -
05/10:00pm 17.0 SSE 22 27 1017.5 - 0.0 - - - - - - -
05/09:30pm 17.1 SSE 23 27 1017.3 - 0.0 - - - - - - -
05/09:00pm 17.3 SSE 23 28 1017.2 - 0.0 - - - - - - -
05/08:30pm 17.3 SSE 22 30 1017.1 - 0.0 - - - - - - -
05/08:00pm 17.7 SSE 23 30 1016.9 - 0.0 - - - - - - -
05/07:30pm 18.1 SSE 24 31 1016.6 - 0.0 - - - - - - -
05/07:00pm 18.1 SSE 23 29 1016.2 - 0.0 - - - - - - -
05/06:30pm 18.7 S 22 27 1016.3 - 0.0 - - - - - - -
05/06:00pm 19.0 S 20 24 1016.5 - 0.0 - - - - - - -
05/05:30pm 19.0 S 19 24 1016.8 - 0.0 - - - - - - -
05/05:00pm 19.0 S 20 24 1016.7 - 0.0 - - - - - - -

Other Formats:

Comma delimited format used in spreadsheet applications
http://www.bom.gov.au/fwo/IDS60701/IDS60701.94804.axf

JavaScript Object Notation format (JSON) in row-major order
http://www.bom.gov.au/fwo/IDS60701/IDS60701.94804.json